Time;durP1;ratioP1;P1;durP2;ratioP2;P2;SDS_P1;SDS_P2;PMS_P1;PMS_P2;Temp;Humidity;BMP_temperature;BMP_pressure;BME280_temperature;BME280_humidity;BME280_pressure;Samples;Min_cycle;Max_cycle;Signal;HPM_P1;HPM_P2
2022/06/12 05:23:03;;;;;;;16.30;15.20;;;20.20;99.90;;;;;;5399768;23;20507;-74
2022/06/12 05:25:31;;;;;;;15.60;14.60;;;20.10;99.90;;;;;;4967470;28;21048;-74
2022/06/12 05:27:59;;;;;;;15.97;14.93;;;20.30;99.90;;;;;;4971342;28;20725;-74
2022/06/12 05:30:29;;;;;;;15.50;14.60;;;20.50;99.90;;;;;;4971172;28;20467;-74
2022/06/12 05:32:57;;;;;;;14.60;13.77;;;20.80;99.90;;;;;;4971346;28;20546;-74
2022/06/12 05:35:24;;;;;;;15.67;14.67;;;20.80;99.90;;;;;;4971412;28;20448;-74
2022/06/12 05:37:51;;;;;;;15.30;14.37;;;20.80;99.90;;;;;;4971442;28;20514;-74
2022/06/12 05:40:24;;;;;;;15.60;14.63;;;21.00;99.90;;;;;;4971213;28;20451;-74
2022/06/12 05:42:51;;;;;;;15.67;14.67;;;21.00;99.90;;;;;;4971515;28;20460;-75
2022/06/12 05:45:20;;;;;;;15.77;14.97;;;21.20;99.90;;;;;;4971172;28;20494;-74
2022/06/12 05:47:50;;;;;;;15.83;14.80;;;21.40;99.90;;;;;;4971226;28;20447;-74
2022/06/12 05:50:18;;;;;;;14.80;14.00;;;21.80;99.90;;;;;;4971024;28;20830;-74
2022/06/12 05:52:45;;;;;;;16.10;15.10;;;21.80;99.90;;;;;;4971070;28;20459;-75
2022/06/12 05:55:12;;;;;;;15.30;14.50;;;21.90;99.90;;;;;;4971009;28;20906;-75
2022/06/12 05:57:41;;;;;;;13.30;12.70;;;22.10;99.90;;;;;;4973257;28;21132;-74
2022/06/12 06:00:11;;;;;;;14.80;14.00;;;22.50;99.90;;;;;;4975002;28;20514;-75
2022/06/12 06:02:38;;;;;;;13.87;13.13;;;22.70;99.90;;;;;;4969811;28;20841;-75
2022/06/12 06:05:06;;;;;;;15.27;14.40;;;22.70;99.90;;;;;;4962493;28;20500;-74
2022/06/12 06:07:33;;;;;;;14.80;14.00;;;22.80;99.90;;;;;;4955857;28;20456;-74
2022/06/12 06:10:00;;;;;;;15.23;14.53;;;23.00;99.90;;;;;;4963362;28;21068;-74
2022/06/12 06:12:26;;;;;;;15.70;14.80;;;23.30;99.90;;;;;;4975249;28;20949;-78
2022/06/12 06:14:54;;;;;;;16.43;15.53;;;23.40;99.90;;;;;;4976682;28;20443;-76
2022/06/12 06:17:21;;;;;;;15.77;15.00;;;23.70;99.90;;;;;;4975441;28;20470;-75
2022/06/12 06:19:48;;;;;;;15.73;14.83;;;23.50;99.90;;;;;;4974991;28;20451;-75
2022/06/12 06:22:17;;;;;;;15.40;14.50;;;23.40;99.90;;;;;;4974865;28;20801;-75
2022/06/12 06:24:44;;;;;;;16.30;14.90;;;23.60;99.90;;;;;;4974965;28;20491;-75
2022/06/12 06:27:11;;;;;;;16.40;15.40;;;23.60;99.90;;;;;;4975011;28;20870;-75
2022/06/12 06:29:38;;;;;;;16.73;15.60;;;23.60;99.90;;;;;;4974977;28;20466;-74
2022/06/12 06:32:07;;;;;;;14.80;14.10;;;23.90;99.90;;;;;;4974839;28;20957;-75
2022/06/12 06:34:36;;;;;;;14.70;14.03;;;24.70;99.90;;;;;;4974708;28;20466;-75
2022/06/12 06:37:03;;;;;;;16.13;15.33;;;25.00;99.10;;;;;;4974572;28;20491;-76
2022/06/12 06:39:30;;;;;;;15.53;14.73;;;25.10;98.70;;;;;;4974517;28;20455;-74
2022/06/12 06:41:57;;;;;;;16.57;15.33;;;25.20;98.20;;;;;;4974112;28;20949;-75
2022/06/12 06:47:10;;;;;;;15.87;14.97;;;25.10;98.20;;;;;;4974766;28;21067;-75
2022/06/12 06:49:37;;;;;;;14.87;14.00;;;25.40;98.10;;;;;;4974656;28;20452;-75
2022/06/12 06:52:04;;;;;;;14.33;13.70;;;25.70;97.10;;;;;;4974424;28;20840;-75
2022/06/12 06:54:31;;;;;;;14.17;13.40;;;25.90;97.00;;;;;;4974449;28;20455;-75
2022/06/12 06:56:58;;;;;;;15.10;14.20;;;26.20;96.40;;;;;;4974326;28;21202;-75
2022/06/12 06:59:24;;;;;;;14.70;13.90;;;26.50;95.50;;;;;;4974052;28;20452;-75
2022/06/12 07:01:52;;;;;;;14.63;13.90;;;26.60;95.20;;;;;;4974440;28;20452;-73
2022/06/12 07:04:20;;;;;;;14.10;13.30;;;26.90;94.80;;;;;;4974361;28;20483;-76
2022/06/12 07:06:47;;;;;;;15.40;14.40;;;27.30;94.10;;;;;;4973878;28;20460;-74
2022/06/12 07:09:14;;;;;;;14.90;14.10;;;27.60;93.60;;;;;;4971480;28;20476;-75
2022/06/12 07:11:41;;;;;;;15.37;14.20;;;28.40;92.20;;;;;;4967792;28;20973;-77
2022/06/12 07:14:08;;;;;;;15.30;14.50;;;28.90;91.30;;;;;;4951475;29;20507;-76
2022/06/12 07:16:36;;;;;;;15.80;15.10;;;29.40;89.10;;;;;;4952745;29;20884;-77
2022/06/12 07:19:04;;;;;;;16.20;15.20;;;29.90;87.00;;;;;;4953988;29;20456;-85
2022/06/12 07:21:32;;;;;;;14.90;14.00;;;30.30;84.20;;;;;;4953982;28;20492;-75
2022/06/12 07:23:59;;;;;;;14.67;13.87;;;29.80;84.40;;;;;;4953631;29;20491;-76
2022/06/12 07:26:29;;;;;;;15.47;14.67;;;30.10;84.50;;;;;;4952218;29;20785;-75
2022/06/12 07:28:56;;;;;;;15.83;15.00;;;30.50;82.80;;;;;;4952689;29;20460;-76
2022/06/12 07:31:23;;;;;;;15.10;14.30;;;30.90;82.20;;;;;;4952276;29;20459;-76
2022/06/12 07:33:50;;;;;;;15.60;14.60;;;31.00;79.70;;;;;;4953994;29;20832;-76
2022/06/12 07:36:18;;;;;;;15.87;15.00;;;31.50;77.30;;;;;;4953498;29;20453;-76
2022/06/12 07:38:50;;;;;;;16.63;15.80;;;32.10;74.70;;;;;;4953655;29;20468;-76
2022/06/12 07:41:18;;;;;;;16.23;15.43;;;32.50;73.70;;;;;;4953791;29;20670;-76
2022/06/12 07:43:47;;;;;;;15.63;14.90;;;33.20;71.30;;;;;;4953472;29;20460;-76
2022/06/12 07:46:16;;;;;;;16.10;15.10;;;33.30;69.10;;;;;;4953313;29;20511;-76
2022/06/12 07:48:44;;;;;;;14.97;14.30;;;33.70;67.50;;;;;;4953168;29;20675;-76
2022/06/12 07:51:15;;;;;;;15.83;14.80;;;33.90;66.10;;;;;;4952891;29;20461;-76
2022/06/12 07:53:42;;;;;;;14.80;14.20;;;33.90;64.70;;;;;;4953125;29;20467;-76
2022/06/12 07:56:11;;;;;;;16.33;14.80;;;34.40;63.30;;;;;;4953419;29;20457;-76
2022/06/12 07:58:38;;;;;;;15.50;14.80;;;34.30;61.80;;;;;;4952956;29;20463;-75
2022/06/12 08:01:08;;;;;;;15.27;14.57;;;34.20;61.60;;;;;;4953166;29;20943;-75
2022/06/12 08:03:35;;;;;;;14.77;14.10;;;34.00;62.20;;;;;;4953102;29;20467;-76
2022/06/12 08:06:03;;;;;;;16.20;15.30;;;34.00;60.70;;;;;;4952682;29;21013;-75
2022/06/12 08:08:30;;;;;;;15.93;15.20;;;33.80;60.10;;;;;;4952784;29;21135;-77
2022/06/12 08:10:56;;;;;;;16.00;15.20;;;34.50;59.10;;;;;;4952666;29;20460;-76
2022/06/12 08:13:25;;;;;;;15.27;14.67;;;34.60;58.00;;;;;;4952945;29;20456;-76
2022/06/12 08:15:53;;;;;;;16.30;15.60;;;34.50;57.90;;;;;;4952879;29;20448;-76
2022/06/12 08:18:21;;;;;;;16.00;15.30;;;34.80;58.30;;;;;;4952822;29;20453;-76
2022/06/12 08:20:51;;;;;;;16.67;15.67;;;34.80;57.50;;;;;;4951840;28;20491;-77
2022/06/12 08:23:29;;;;;;;15.30;14.70;;;34.40;58.20;;;;;;4952533;29;20488;-77
2022/06/12 08:25:58;;;;;;;15.63;14.80;;;34.60;57.80;;;;;;4952567;29;20488;-76
2022/06/12 08:28:28;;;;;;;15.47;14.37;;;34.60;56.80;;;;;;4952296;29;20461;-78
2022/06/12 08:30:55;;;;;;;14.70;14.10;;;35.00;56.70;;;;;;4952443;29;20457;-77
2022/06/12 08:33:22;;;;;;;14.10;13.50;;;35.70;53.70;;;;;;4952634;29;20452;-78
2022/06/12 08:35:50;;;;;;;14.60;13.70;;;35.60;53.40;;;;;;4952468;29;20456;-77
2022/06/12 08:38:17;;;;;;;14.40;13.80;;;35.90;53.30;;;;;;4952250;29;20456;-78
2022/06/12 08:40:51;;;;;;;16.07;15.37;;;36.00;53.10;;;;;;4952923;29;20507;-77
2022/06/12 08:43:31;;;;;;;14.90;14.20;;;36.10;53.10;;;;;;4952259;29;20959;-76
2022/06/12 08:46:03;;;;;;;14.57;13.93;;;36.60;52.60;;;;;;4952188;29;20511;-76
2022/06/12 08:48:34;;;;;;;15.23;14.63;;;37.00;51.00;;;;;;4952490;29;20453;-76
2022/06/12 08:51:06;;;;;;;16.20;15.50;;;36.90;50.70;;;;;;4952185;29;20460;-76
2022/06/12 08:53:42;;;;;;;16.03;15.30;;;37.50;50.00;;;;;;4952058;29;20460;-76
2022/06/12 08:56:13;;;;;;;15.87;15.20;;;37.70;49.50;;;;;;4952342;29;20460;-77
2022/06/12 08:58:48;;;;;;;16.10;15.40;;;38.10;48.70;;;;;;4952121;29;20480;-76
2022/06/12 09:01:15;;;;;;;15.80;15.10;;;37.90;49.40;;;;;;4952099;29;20503;-75
2022/06/12 09:03:45;;;;;;;15.57;14.87;;;37.80;48.60;;;;;;4951764;29;20460;-75
2022/06/12 09:06:23;;;;;;;16.00;15.30;;;37.50;48.10;;;;;;4951748;29;20829;-76
2022/06/12 09:08:54;;;;;;;15.33;14.63;;;37.40;48.50;;;;;;4952109;29;20456;-76
2022/06/12 09:11:30;;;;;;;16.00;15.30;;;37.60;47.70;;;;;;4952108;29;20978;-76
2022/06/12 09:14:01;;;;;;;15.40;14.60;;;38.20;46.40;;;;;;4951879;29;20648;-77
2022/06/12 09:16:37;;;;;;;16.67;15.73;;;38.00;46.90;;;;;;4952133;29;20471;-77
2022/06/12 09:19:10;;;;;;;16.10;15.00;;;37.80;47.70;;;;;;4951897;29;20531;-76
2022/06/12 09:21:45;;;;;;;16.20;15.50;;;38.00;45.90;;;;;;4951579;28;20874;-76
2022/06/12 09:24:23;;;;;;;15.03;14.43;;;37.20;46.40;;;;;;4951660;29;20452;-77
2022/06/12 09:27:01;;;;;;;15.97;15.17;;;36.50;47.90;;;;;;4951863;29;20861;-76
2022/06/12 09:29:45;;;;;;;15.07;14.40;;;36.20;47.30;;;;;;4951836;29;20452;-76
2022/06/12 09:32:21;;;;;;;15.63;14.83;;;36.40;47.10;;;;;;4953606;28;20475;-76
2022/06/12 09:35:06;;;;;;;15.00;14.40;;;36.50;47.00;;;;;;4956055;29;20463;-76
2022/06/12 09:40:34;;;;;;;15.60;15.00;;;37.80;45.70;;;;;;4955866;29;20428;-77
2022/06/12 09:43:04;;;;;;;14.73;14.13;;;37.70;45.70;;;;;;4955921;29;20873;-77
2022/06/12 09:45:45;;;;;;;15.63;15.00;;;38.10;45.00;;;;;;4955613;29;20515;-77
2022/06/12 09:48:21;;;;;;;15.30;14.73;;;37.70;44.60;;;;;;4955794;29;20452;-76
2022/06/12 09:50:59;;;;;;;15.10;14.50;;;37.90;44.00;;;;;;4955725;29;20454;-76
2022/06/12 09:53:41;;;;;;;15.53;14.93;;;37.30;42.80;;;;;;4955811;29;20448;-77
2022/06/12 09:56:14;;;;;;;15.33;14.73;;;37.70;43.30;;;;;;4955929;29;20453;-76
2022/06/12 09:58:47;;;;;;;15.40;14.80;;;37.30;43.60;;;;;;4955753;29;20464;-76
2022/06/12 10:01:21;;;;;;;15.83;15.20;;;36.50;44.80;;;;;;4955779;29;20729;-75
2022/06/12 10:03:53;;;;;;;14.80;14.23;;;36.30;45.60;;;;;;4955840;29;20456;-76
2022/06/12 10:06:27;;;;;;;15.90;15.20;;;36.50;45.20;;;;;;4955741;29;20496;-76
2022/06/12 10:09:00;;;;;;;16.83;16.03;;;36.80;44.60;;;;;;4955921;29;20625;-77
2022/06/12 10:11:38;;;;;;;15.80;15.13;;;37.80;42.70;;;;;;4955576;29;20452;-76
2022/06/12 10:14:09;;;;;;;17.60;16.70;;;37.90;42.60;;;;;;4955786;29;20831;-76
2022/06/12 10:16:43;;;;;;;15.60;14.93;;;39.10;41.30;;;;;;4955724;29;20525;-77
2022/06/12 10:19:16;;;;;;;15.13;14.63;;;39.80;40.10;;;;;;4955551;29;20863;-76
2022/06/12 10:21:49;;;;;;;14.67;14.07;;;39.00;41.00;;;;;;4955068;29;20954;-75
2022/06/12 10:24:16;;;;;;;15.60;14.80;;;38.90;40.40;;;;;;4955386;29;20806;-76
2022/06/12 10:26:54;;;;;;;15.77;15.00;;;39.30;39.80;;;;;;4955166;29;20503;-77
2022/06/12 10:29:24;;;;;;;15.70;14.70;;;39.00;40.10;;;;;;4955539;29;20970;-76
2022/06/12 10:31:59;;;;;;;14.43;13.83;;;38.80;40.30;;;;;;4955549;29;20464;-76
2022/06/12 10:34:29;;;;;;;15.00;14.40;;;38.80;40.10;;;;;;4954957;29;20846;-78
2022/06/12 10:36:56;;;;;;;15.43;14.83;;;39.00;40.50;;;;;;4955089;29;20453;-77
2022/06/12 10:39:25;;;;;;;15.97;15.17;;;38.90;39.90;;;;;;4955246;29;20946;-75
2022/06/12 10:41:53;;;;;;;14.93;14.33;;;37.70;40.10;;;;;;4955366;29;20471;-75
2022/06/12 10:44:36;;;;;;;15.20;14.63;;;38.20;40.40;;;;;;4954732;28;20816;-76
2022/06/12 10:47:22;;;;;;;15.60;15.00;;;39.00;38.70;;;;;;4954940;29;21315;-76
2022/06/12 10:50:01;;;;;;;17.40;16.60;;;40.50;36.90;;;;;;4955135;29;20455;-76
2022/06/12 10:52:28;;;;;;;17.77;16.97;;;41.60;35.30;;;;;;4954679;29;20452;-76
2022/06/12 10:54:54;;;;;;;15.50;14.90;;;41.30;35.20;;;;;;4955102;29;20518;-77
2022/06/12 10:57:39;;;;;;;15.53;14.63;;;40.10;37.20;;;;;;4954828;29;20455;-76
2022/06/12 11:00:09;;;;;;;15.93;15.20;;;40.30;37.00;;;;;;4954686;29;20890;-76
2022/06/12 11:02:48;;;;;;;15.53;14.83;;;40.20;37.10;;;;;;4954866;29;20954;-76
2022/06/12 11:05:35;;;;;;;15.77;14.70;;;40.50;37.10;;;;;;4954083;29;20459;-76
2022/06/12 11:08:14;;;;;;;15.30;14.70;;;40.50;36.60;;;;;;4954333;29;20471;-77
2022/06/12 11:10:47;;;;;;;15.40;14.60;;;39.60;37.50;;;;;;4954146;29;20527;-76
2022/06/12 11:13:33;;;;;;;15.10;14.40;;;39.50;38.40;;;;;;4954380;29;20460;-76
2022/06/12 11:16:15;;;;;;;16.33;15.60;;;39.70;38.20;;;;;;4954103;29;20444;-76
2022/06/12 11:18:58;;;;;;;16.27;15.37;;;39.90;36.90;;;;;;4954030;29;20519;-77
2022/06/12 11:21:37;;;;;;;15.70;14.90;;;39.70;37.50;;;;;;4954183;28;20567;-77
2022/06/12 11:24:13;;;;;;;14.50;13.90;;;40.00;36.80;;;;;;4954002;29;20507;-77
2022/06/12 11:26:59;;;;;;;15.57;14.97;;;40.50;36.90;;;;;;4954056;29;20495;-78
2022/06/12 11:29:52;;;;;;;15.97;15.27;;;40.90;36.30;;;;;;4953916;29;20507;-78
2022/06/12 11:32:33;;;;;;;14.70;14.00;;;41.50;34.80;;;;;;4954109;29;20456;-77
2022/06/12 11:35:17;;;;;;;14.93;14.33;;;41.10;35.30;;;;;;4953808;29;20451;-77
2022/06/12 11:38:21;;;;;;;16.00;15.33;;;41.10;35.80;;;;;;4953734;29;20494;-77
2022/06/12 11:40:57;;;;;;;16.00;15.40;;;40.90;36.20;;;;;;4857232;29;20444;-77
2022/06/12 11:43:32;;;;;;;15.83;15.23;;;40.20;36.70;;;;;;4941637;29;20463;-76
2022/06/12 11:46:12;;;;;;;17.50;16.30;;;40.20;36.50;;;;;;4953485;29;21060;-76
2022/06/12 11:48:55;;;;;;;16.43;15.80;;;39.50;37.00;;;;;;4953370;29;20472;-77
2022/06/12 11:51:32;;;;;;;16.00;15.30;;;39.30;36.90;;;;;;4953813;29;20460;-75
2022/06/12 11:54:16;;;;;;;15.73;15.13;;;39.00;37.40;;;;;;4952750;28;20448;-76
2022/06/12 11:56:53;;;;;;;16.80;15.90;;;38.20;38.10;;;;;;4953337;29;20802;-76
2022/06/12 11:59:34;;;;;;;15.80;15.20;;;38.40;37.80;;;;;;4953461;29;20841;-75
2022/06/12 12:02:12;;;;;;;15.63;15.03;;;38.20;38.10;;;;;;4953047;29;20459;-75
2022/06/12 12:05:13;;;;;;;16.33;15.73;;;37.90;38.60;;;;;;4953179;29;20452;-76
2022/06/12 12:07:53;;;;;;;16.60;15.80;;;38.00;38.50;;;;;;4945142;29;21065;-76
2022/06/12 12:10:33;;;;;;;14.63;14.03;;;37.70;38.70;;;;;;4953219;29;20483;-75
2022/06/12 12:13:03;;;;;;;16.67;15.97;;;38.30;38.50;;;;;;4953200;29;21137;-76
2022/06/12 12:15:35;;;;;;;15.40;14.50;;;39.10;37.20;;;;;;4952879;29;20568;-76
2022/06/12 12:18:04;;;;;;;15.73;15.03;;;38.60;38.50;;;;;;4952844;29;20453;-75
2022/06/12 12:20:37;;;;;;;15.23;14.63;;;39.00;37.90;;;;;;4952750;29;20959;-76
2022/06/12 12:23:11;;;;;;;15.67;14.90;;;38.60;38.10;;;;;;4952581;29;20486;-76
2022/06/12 12:25:42;;;;;;;15.17;14.17;;;38.40;38.60;;;;;;4952985;29;20480;-78
2022/06/12 12:28:18;;;;;;;15.47;14.77;;;38.10;38.10;;;;;;4952960;29;20457;-75
2022/06/12 12:30:46;;;;;;;15.80;15.20;;;37.10;38.90;;;;;;4952795;29;20467;-75
2022/06/12 12:33:15;;;;;;;14.77;14.20;;;37.70;38.60;;;;;;4952778;29;20976;-76
2022/06/12 12:41:19;;;;;;;15.03;14.43;;;35.30;42.10;;;;;;4952599;29;20958;-75
2022/06/12 12:43:51;;;;;;;15.37;14.57;;;36.60;41.40;;;;;;4952373;29;20449;-75
2022/06/12 12:46:19;;;;;;;15.47;14.87;;;35.70;41.70;;;;;;4952245;29;20492;-77
2022/06/12 12:48:48;;;;;;;14.50;13.90;;;34.60;43.30;;;;;;4952729;29;20461;-80
2022/06/12 12:51:31;;;;;;;13.73;13.13;;;34.70;44.00;;;;;;4953160;29;20460;-83
2022/06/12 12:54:10;;;;;;;14.63;14.03;;;34.60;44.30;;;;;;4952976;29;20714;-83
2022/06/12 12:56:40;;;;;;;16.97;16.07;;;33.90;44.40;;;;;;4953027;29;20448;-76
2022/06/12 12:59:10;;;;;;;16.17;15.47;;;33.20;45.60;;;;;;4953054;29;20795;-76
2022/06/12 13:01:39;;;;;;;16.03;15.40;;;33.50;46.50;;;;;;4952556;29;20456;-76
2022/06/12 13:04:14;;;;;;;14.47;13.97;;;33.50;46.70;;;;;;4952547;29;20538;-75
2022/06/12 13:06:57;;;;;;;14.57;13.97;;;33.20;46.80;;;;;;4951923;28;20550;-77
2022/06/12 13:09:37;;;;;;;14.83;14.10;;;33.20;46.50;;;;;;4952237;29;20456;-76
2022/06/12 13:12:13;;;;;;;14.57;13.97;;;33.70;45.70;;;;;;4952282;29;20467;-77
2022/06/12 13:15:25;;;;;;;14.17;13.50;;;33.70;45.00;;;;;;4952327;29;20452;-76
2022/06/12 13:17:59;;;;;;;14.40;13.80;;;33.70;45.30;;;;;;4952561;29;20519;-76
2022/06/12 13:20:49;;;;;;;14.87;14.13;;;33.60;46.10;;;;;;4951774;28;20728;-77
2022/06/12 13:23:28;;;;;;;14.93;14.23;;;34.00;45.20;;;;;;4951959;29;20472;-77
2022/06/12 13:26:01;;;;;;;14.67;14.07;;;33.80;45.00;;;;;;4952220;29;20460;-77
2022/06/12 13:28:29;;;;;;;14.80;14.00;;;33.60;46.10;;;;;;4951969;29;20974;-78
2022/06/12 13:30:57;;;;;;;15.67;14.90;;;34.20;46.20;;;;;;4952057;29;20534;-78
2022/06/12 13:33:27;;;;;;;15.90;15.20;;;35.40;43.70;;;;;;4952052;29;20453;-78
2022/06/12 13:35:56;;;;;;;15.30;14.60;;;35.90;42.90;;;;;;4952013;29;20479;-79
2022/06/12 13:38:26;;;;;;;14.80;14.20;;;35.90;43.30;;;;;;4952059;29;20460;-77
2022/06/12 13:41:08;;;;;;;14.43;13.93;;;34.60;44.00;;;;;;4951994;29;20464;-77
2022/06/12 13:43:39;;;;;;;14.20;13.60;;;33.60;45.50;;;;;;4952263;29;20856;-77
2022/06/12 13:46:20;;;;;;;14.13;13.60;;;33.20;46.70;;;;;;4952116;29;20453;-77
2022/06/12 13:48:47;;;;;;;13.80;13.30;;;33.10;46.90;;;;;;4952128;29;20460;-77
2022/06/12 13:51:22;;;;;;;14.60;13.93;;;32.90;47.10;;;;;;4951884;29;20782;-77
2022/06/12 13:53:56;;;;;;;14.67;13.73;;;32.50;47.90;;;;;;4952445;29;20476;-76
2022/06/12 13:56:25;;;;;;;14.27;13.60;;;32.60;48.50;;;;;;4952061;29;20537;-76
2022/06/12 13:58:54;;;;;;;14.23;13.63;;;32.40;48.80;;;;;;4952212;29;20464;-76
2022/06/12 14:01:25;;;;;;;14.20;13.60;;;32.20;49.60;;;;;;4952318;29;20456;-77
2022/06/12 14:03:53;;;;;;;15.33;14.53;;;32.30;49.90;;;;;;4952033;29;20463;-77
2022/06/12 14:06:24;;;;;;;14.57;13.87;;;32.40;49.90;;;;;;4951804;29;20488;-77
2022/06/12 14:08:58;;;;;;;14.60;14.00;;;32.60;49.70;;;;;;4951935;29;20449;-77
2022/06/12 14:11:28;;;;;;;14.07;13.47;;;32.90;49.70;;;;;;4952008;29;20459;-78
2022/06/12 14:13:56;;;;;;;14.13;13.50;;;32.90;49.60;;;;;;4951712;29;20459;-76
2022/06/12 14:16:25;;;;;;;15.20;14.50;;;32.90;50.00;;;;;;4951789;29;20580;-77
2022/06/12 14:19:00;;;;;;;14.43;13.70;;;32.90;50.50;;;;;;4954283;28;20824;-77
2022/06/12 14:21:29;;;;;;;15.33;14.53;;;33.40;49.80;;;;;;4954881;29;20973;-77
2022/06/12 14:24:00;;;;;;;14.77;14.17;;;33.50;49.20;;;;;;4955024;29;20480;-76
2022/06/12 14:26:35;;;;;;;14.87;14.17;;;33.40;48.70;;;;;;4954838;29;20859;-77
2022/06/12 14:29:05;;;;;;;14.30;13.50;;;33.40;49.10;;;;;;4955075;29;20529;-78
2022/06/12 14:31:34;;;;;;;14.30;13.70;;;33.50;48.60;;;;;;4955095;29;20962;-78
2022/06/12 14:34:03;;;;;;;15.10;14.40;;;33.80;49.30;;;;;;4954990;29;20555;-78
2022/06/12 14:36:36;;;;;;;14.03;13.43;;;33.90;48.70;;;;;;4954544;29;20452;-78
2022/06/12 14:39:13;;;;;;;14.10;13.50;;;34.00;48.10;;;;;;4952154;29;20818;-77
2022/06/12 14:41:50;;;;;;;13.70;13.00;;;34.20;47.80;;;;;;4954728;29;20815;-78
2022/06/12 14:44:18;;;;;;;13.93;13.33;;;33.80;48.80;;;;;;4954660;29;20470;-77
2022/06/12 14:46:45;;;;;;;12.57;12.07;;;33.50;49.20;;;;;;4954711;29;20528;-77
2022/06/12 14:49:16;;;;;;;14.10;13.50;;;33.20;50.50;;;;;;4954826;29;21014;-79
2022/06/12 14:51:44;;;;;;;14.40;13.70;;;33.30;50.20;;;;;;4954891;29;20449;-77
2022/06/12 14:54:11;;;;;;;14.03;13.33;;;33.40;50.10;;;;;;4954795;29;20523;-77
2022/06/12 14:56:42;;;;;;;13.70;13.10;;;33.00;50.80;;;;;;4954868;29;20938;-76
2022/06/12 14:59:20;;;;;;;13.70;13.10;;;32.40;51.80;;;;;;4954801;29;20448;-76
2022/06/12 15:01:47;;;;;;;13.90;13.20;;;32.00;52.60;;;;;;4954457;29;20460;-76
2022/06/12 15:04:15;;;;;;;14.20;13.50;;;31.40;53.10;;;;;;4954493;29;20482;-76
2022/06/12 15:06:42;;;;;;;14.33;13.60;;;31.20;54.00;;;;;;4954557;29;20499;-76
2022/06/12 15:09:10;;;;;;;13.93;13.33;;;31.20;54.10;;;;;;4954409;29;20461;-76
2022/06/12 15:11:38;;;;;;;13.97;13.23;;;31.30;54.20;;;;;;4954564;29;20931;-77
2022/06/12 15:14:06;;;;;;;13.00;12.60;;;31.10;53.90;;;;;;4954622;29;20467;-77
2022/06/12 15:16:35;;;;;;;12.70;12.20;;;30.60;54.70;;;;;;4954292;29;20779;-77
2022/06/12 15:19:02;;;;;;;14.00;12.80;;;30.60;55.40;;;;;;4954425;29;20456;-77
2022/06/12 15:21:31;;;;;;;13.27;12.67;;;30.50;55.70;;;;;;4954595;28;20837;-77
2022/06/12 15:23:58;;;;;;;13.47;12.87;;;30.20;56.30;;;;;;4953987;29;20488;-76
2022/06/12 15:31:56;;;;;;;13.10;12.40;;;30.00;57.50;;;;;;4954268;29;20444;-76
2022/06/12 15:34:22;;;;;;;13.60;12.90;;;30.00;57.40;;;;;;4953852;29;20519;-76
2022/06/12 15:36:49;;;;;;;14.43;13.73;;;30.20;57.10;;;;;;4953950;29;20459;-76
2022/06/12 15:39:16;;;;;;;13.80;13.10;;;30.30;56.80;;;;;;4953895;29;20464;-76
2022/06/12 15:41:43;;;;;;;13.30;12.80;;;30.20;57.30;;;;;;4953789;29;20452;-76
2022/06/12 15:44:10;;;;;;;13.63;13.03;;;30.30;57.70;;;;;;4953746;29;20878;-75
2022/06/12 15:46:37;;;;;;;13.33;12.83;;;30.30;56.90;;;;;;4953847;29;20456;-76
2022/06/12 15:49:06;;;;;;;14.00;13.20;;;30.20;56.70;;;;;;4953767;29;20547;-76
2022/06/12 15:51:33;;;;;;;14.00;13.40;;;30.20;57.00;;;;;;4953458;29;20451;-76
2022/06/12 15:53:59;;;;;;;14.10;13.50;;;30.20;57.50;;;;;;4953400;29;20507;-76
2022/06/12 15:56:27;;;;;;;13.80;13.30;;;30.10;57.60;;;;;;4953470;29;20943;-76
2022/06/12 15:58:55;;;;;;;14.27;13.50;;;30.20;57.40;;;;;;4953490;29;20457;-76
2022/06/12 16:01:25;;;;;;;13.70;13.07;;;30.30;57.20;;;;;;4953472;29;20555;-75
2022/06/12 16:03:51;;;;;;;14.23;13.53;;;30.40;57.00;;;;;;4953607;29;20452;-76
2022/06/12 16:06:20;;;;;;;14.23;13.50;;;30.60;56.80;;;;;;4953441;29;20820;-76
2022/06/12 16:08:47;;;;;;;12.83;12.27;;;30.40;56.60;;;;;;4953094;29;21016;-76
2022/06/12 16:11:14;;;;;;;14.00;13.20;;;30.40;56.80;;;;;;4953129;29;20997;-77
2022/06/12 16:13:40;;;;;;;13.73;13.10;;;30.50;56.70;;;;;;4952965;29;20959;-77
2022/06/12 16:16:08;;;;;;;13.40;12.87;;;30.40;56.70;;;;;;4953335;29;20468;-77
2022/06/12 16:18:35;;;;;;;13.67;13.17;;;30.30;56.70;;;;;;4953192;29;20971;-77
2022/06/12 16:21:02;;;;;;;12.60;12.00;;;30.30;56.90;;;;;;4953184;29;20480;-77
2022/06/12 16:23:32;;;;;;;13.80;13.20;;;30.20;56.10;;;;;;4953038;29;20480;-77
2022/06/12 16:25:59;;;;;;;13.57;13.07;;;30.10;55.80;;;;;;4953477;29;20465;-77
2022/06/12 16:28:26;;;;;;;13.73;12.97;;;30.00;55.40;;;;;;4954337;29;20842;-77
2022/06/12 16:30:54;;;;;;;15.27;14.10;;;29.80;54.90;;;;;;4954273;29;20523;-77
2022/06/12 16:33:23;;;;;;;13.30;12.70;;;29.90;55.70;;;;;;4953836;29;20938;-77
2022/06/12 16:35:49;;;;;;;13.43;12.77;;;29.80;55.20;;;;;;4952931;29;20494;-78
2022/06/12 16:38:17;;;;;;;13.80;13.20;;;29.80;55.50;;;;;;4953514;29;20448;-77
2022/06/12 16:40:45;;;;;;;12.90;12.30;;;29.80;56.00;;;;;;4953703;28;20552;-76
2022/06/12 16:43:12;;;;;;;13.20;12.60;;;29.70;55.40;;;;;;4953592;29;20915;-76
2022/06/12 16:45:39;;;;;;;12.73;12.10;;;29.60;54.80;;;;;;4952748;29;20537;-76
2022/06/12 16:48:06;;;;;;;12.60;12.00;;;29.50;55.00;;;;;;4952675;29;20489;-77
2022/06/12 16:50:33;;;;;;;13.90;13.30;;;29.40;55.90;;;;;;4952685;29;20456;-76
2022/06/12 16:53:01;;;;;;;13.50;12.90;;;29.40;55.20;;;;;;4952520;29;20764;-77
2022/06/12 16:55:28;;;;;;;13.53;13.00;;;29.30;54.90;;;;;;4952352;29;20457;-76
2022/06/12 16:57:56;;;;;;;12.40;11.90;;;29.20;55.20;;;;;;4952777;29;20871;-78
2022/06/12 17:00:23;;;;;;;12.90;12.30;;;29.10;54.50;;;;;;4952523;29;20959;-81
2022/06/12 17:02:49;;;;;;;12.77;12.03;;;29.00;54.80;;;;;;4952801;29;20461;-78
2022/06/12 17:05:17;;;;;;;12.40;11.90;;;29.00;55.20;;;;;;4953107;29;20471;-86
2022/06/12 17:07:48;;;;;;;13.10;12.43;;;28.90;54.80;;;;;;4953256;29;20527;-85
2022/06/12 17:10:16;;;;;;;12.80;12.10;;;28.90;54.60;;;;;;4953011;29;20456;-85
2022/06/12 17:12:44;;;;;;;13.27;12.67;;;28.80;54.40;;;;;;4952879;29;20503;-86
2022/06/12 17:15:17;;;;;;;12.13;11.70;;;28.70;54.50;;;;;;4953353;29;20449;-84
2022/06/12 17:20:42;;;;;;;12.30;11.70;;;28.60;54.90;;;;;;4954238;29;20496;-85
2022/06/12 17:20:45;;;;;;;12.00;11.43;;;28.60;55.40;;;;;;4952688;28;21001;-84
2022/06/12 17:23:15;;;;;;;12.67;11.97;;;28.50;55.80;;;;;;4963872;28;20487;-83
2022/06/12 17:25:44;;;;;;;12.97;12.27;;;28.60;56.30;;;;;;4972041;28;20451;-85
2022/06/12 17:28:12;;;;;;;13.03;12.43;;;28.60;57.00;;;;;;4972145;28;20487;-84
2022/06/12 17:30:41;;;;;;;12.50;12.00;;;28.60;57.70;;;;;;4972568;28;20816;-84
2022/06/12 17:33:08;;;;;;;12.70;12.03;;;28.60;57.90;;;;;;4972994;28;20892;-85
2022/06/12 17:35:35;;;;;;;12.03;11.53;;;28.60;58.10;;;;;;4971914;28;20455;-75
2022/06/12 17:38:02;;;;;;;12.40;11.70;;;28.50;58.10;;;;;;4971266;28;20454;-76
2022/06/12 17:40:29;;;;;;;13.37;12.67;;;28.50;58.00;;;;;;4971080;28;20459;-75
2022/06/12 17:42:56;;;;;;;12.60;12.00;;;28.40;58.20;;;;;;4971280;28;20459;-76
2022/06/12 17:45:23;;;;;;;12.73;12.23;;;28.30;57.90;;;;;;4973864;28;20462;-83
2022/06/12 17:47:51;;;;;;;12.80;12.03;;;28.20;58.00;;;;;;4981867;28;20476;-86
2022/06/12 17:50:18;;;;;;;12.33;11.83;;;28.10;59.10;;;;;;4980902;28;20436;-86
2022/06/12 17:52:45;;;;;;;12.87;12.13;;;28.00;59.10;;;;;;4977353;28;20510;-87
2022/06/12 17:55:12;;;;;;;12.30;11.73;;;27.90;59.00;;;;;;4982924;28;20867;-87
2022/06/12 17:57:39;;;;;;;12.63;11.93;;;27.80;59.30;;;;;;4977084;28;20454;-88
2022/06/12 18:00:08;;;;;;;14.40;13.40;;;27.80;60.10;;;;;;4976114;28;20451;-87
2022/06/12 18:02:35;;;;;;;14.10;13.40;;;27.70;59.80;;;;;;4975466;28;20459;-81
2022/06/12 18:05:03;;;;;;;14.37;13.57;;;27.70;60.10;;;;;;4975820;28;20467;-88
2022/06/12 18:07:31;;;;;;;14.60;13.37;;;27.70;60.50;;;;;;4977255;28;20961;-88
2022/06/12 18:09:57;;;;;;;13.57;12.80;;;27.60;59.70;;;;;;4978796;28;21205;-88
2022/06/12 18:12:24;;;;;;;13.90;12.90;;;27.60;60.00;;;;;;4977155;28;20432;-87
2022/06/12 18:20:20;;;;;;;11.97;11.37;;;27.50;60.60;;;;;;4977451;28;20802;-88
2022/06/12 18:22:47;;;;;;;12.80;12.10;;;27.50;61.10;;;;;;4978121;28;20561;-88
2022/06/12 18:25:14;;;;;;;12.80;12.20;;;27.50;61.30;;;;;;4977139;28;20462;-87
2022/06/12 18:27:40;;;;;;;12.70;12.10;;;27.40;61.50;;;;;;4977133;28;20493;-87
2022/06/12 18:30:09;;;;;;;12.43;11.93;;;27.50;61.70;;;;;;4977192;28;20451;-87
2022/06/12 18:32:36;;;;;;;12.30;11.80;;;27.50;62.00;;;;;;4977451;28;20454;-87